createdAt,value
2018-11-05T00:00:49.531Z,5.3
2018-11-05T00:01:39.386Z,5.2
2018-11-05T00:02:30.008Z,5.1
2018-11-05T00:03:19.707Z,5.1
2018-11-05T00:04:09.876Z,5.1
2018-11-05T00:05:00.080Z,5.1
2018-11-05T00:05:50.499Z,5
2018-11-05T00:06:40.237Z,5.1
2018-11-05T00:24:55.351Z,4.9
2018-11-05T00:25:45.196Z,4.9
2018-11-05T00:26:35.236Z,4.9
2018-11-05T00:27:25.595Z,4.9
2018-11-05T00:28:15.656Z,4.9
2018-11-05T00:29:06.001Z,4.8
2018-11-05T00:29:56.019Z,4.8
2018-11-05T00:30:46.101Z,4.9
2018-11-05T00:31:35.663Z,4.8
2018-11-05T00:32:26.504Z,4.8
2018-11-05T00:33:16.009Z,4.8
2018-11-05T00:34:06.072Z,4.8
2018-11-05T00:34:55.920Z,4.8
2018-11-05T00:35:45.888Z,4.8
2018-11-05T00:36:36.051Z,4.8
2018-11-05T00:37:26.047Z,4.7
2018-11-05T00:38:16.373Z,4.8
2018-11-05T00:39:06.408Z,4.7
2018-11-05T00:39:56.760Z,4.6
2018-11-05T00:40:46.865Z,4.6
2018-11-05T00:41:36.965Z,4.6
2018-11-05T00:42:26.955Z,4.6
2018-11-05T00:43:16.722Z,4.6
2018-11-05T00:44:06.490Z,4.7
2018-11-05T00:44:57.123Z,4.7
2018-11-05T00:45:47.926Z,4.7
2018-11-05T00:46:37.262Z,4.7
2018-11-05T00:47:27.857Z,4.7
2018-11-05T00:48:17.110Z,4.7
2018-11-05T00:49:07.751Z,4.7
2018-11-05T00:49:57.475Z,4.7
2018-11-05T00:50:47.280Z,4.7
2018-11-05T00:51:37.601Z,4.6
2018-11-05T00:52:27.659Z,4.6
2018-11-05T00:53:17.176Z,4.6
2018-11-05T00:54:07.525Z,4.6
2018-11-05T00:54:57.876Z,4.6
2018-11-05T00:55:48.188Z,4.6
2018-11-05T00:56:37.707Z,4.6
2018-11-05T00:57:28.572Z,4.7
2018-11-05T00:58:17.632Z,4.7
2018-11-05T00:59:07.902Z,4.6
2018-11-05T00:59:58.244Z,4.6
2018-11-05T01:00:47.709Z,4.6
2018-11-05T01:01:38.287Z,4.6
2018-11-05T01:02:28.171Z,4.6
2018-11-05T01:03:17.989Z,4.6
2018-11-05T01:04:08.261Z,4.6
2018-11-05T01:04:59.130Z,4.6
2018-11-05T01:05:48.371Z,4.6
2018-11-05T01:06:38.414Z,4.6
2018-11-05T01:07:28.293Z,4.6
2018-11-05T01:08:18.826Z,4.6
2018-11-05T01:09:08.918Z,4.5
2018-11-05T01:09:58.393Z,4.4
2018-11-05T01:10:49.036Z,4.4
2018-11-05T01:11:39.348Z,4.5
2018-11-05T01:12:29.170Z,4.5
2018-11-05T01:13:19.493Z,4.5
2018-11-05T01:14:08.974Z,4.5
2018-11-05T01:14:59.076Z,4.4
2018-11-05T01:15:49.443Z,4.4
2018-11-05T01:16:39.423Z,4.4
2018-11-05T01:17:29.215Z,4.4
2018-11-05T01:18:19.383Z,4.3
2018-11-05T01:19:09.917Z,4.4
2018-11-05T01:19:59.377Z,4.4
2018-11-05T01:20:48.986Z,4.4
2018-11-05T01:21:39.805Z,4.4
2018-11-05T01:22:29.888Z,4.4
2018-11-05T01:23:19.932Z,4.4
2018-11-05T01:24:10.013Z,4.4
2018-11-05T01:24:59.798Z,4.4
2018-11-05T01:25:50.091Z,4.4
2018-11-05T01:26:40.200Z,4.4
2018-11-05T01:27:29.964Z,4.5
2018-11-05T01:28:20.279Z,4.5
2018-11-05T01:29:10.085Z,4.4
2018-11-05T01:30:00.220Z,4.3
2018-11-05T01:30:50.218Z,4.3
2018-11-05T01:31:40.538Z,4.4
2018-11-05T01:32:30.040Z,4.4
2018-11-05T01:33:19.911Z,4.4
2018-11-05T01:34:10.452Z,4.4
2018-11-05T01:35:00.219Z,4.5
2018-11-05T01:35:51.137Z,4.5
2018-11-05T01:36:40.615Z,4.4
2018-11-05T01:37:30.401Z,4.4
2018-11-05T01:38:21.304Z,4.4
2018-11-05T01:39:10.504Z,4.4
2018-11-05T01:40:01.142Z,4.4
2018-11-05T01:40:51.210Z,4.4
2018-11-05T01:41:40.706Z,4.3
2018-11-05T01:42:31.356Z,4.3
2018-11-05T01:43:20.336Z,4.3
2018-11-05T01:44:11.464Z,4.3
2018-11-05T01:45:00.817Z,4.3
2018-11-05T01:45:51.566Z,4.4
2018-11-05T01:46:40.854Z,4.4
2018-11-05T01:47:31.711Z,4.4
2018-11-05T01:48:21.218Z,4.4
2018-11-05T01:49:11.558Z,4.4
2018-11-05T01:50:01.883Z,4.4
2018-11-05T01:50:51.169Z,4.4
2018-11-05T01:51:42.214Z,4.5
2018-11-05T01:52:32.096Z,4.5
2018-11-05T01:53:21.946Z,4.5
2018-11-05T01:54:11.903Z,4.5
2018-11-05T01:55:01.474Z,4.5
2018-11-05T01:55:52.020Z,4.4
2018-11-05T01:56:42.370Z,4.5
2018-11-05T01:57:31.865Z,4.6
2018-11-05T01:58:22.787Z,4.8
2018-11-05T01:59:12.500Z,5
2018-11-05T02:00:02.338Z,5.1
2018-11-05T02:00:52.118Z,5.3
2018-11-05T02:01:42.735Z,5.4
2018-11-05T02:02:33.140Z,5.4
2018-11-05T02:03:22.683Z,5.3
2018-11-05T02:04:12.625Z,5.3
2018-11-05T02:05:02.712Z,5.7
2018-11-05T02:05:53.314Z,5.6
2018-11-05T02:06:42.890Z,5.9
2018-11-05T02:07:32.585Z,5.9
2018-11-05T02:08:22.634Z,6
2018-11-05T02:09:12.236Z,5.8
2018-11-05T02:10:03.495Z,5.8
2018-11-05T02:10:53.004Z,5.8
2018-11-05T02:11:43.735Z,5.9
2018-11-05T02:12:34.055Z,5.9
2018-11-05T02:13:24.189Z,5.8
2018-11-05T02:14:13.652Z,5.9
2018-11-05T02:15:04.022Z,5.8
2018-11-05T02:15:54.224Z,5.8
2018-11-05T02:16:44.116Z,5.8
2018-11-05T02:17:33.418Z,5.4
2018-11-05T02:18:23.401Z,5.1
2018-11-05T02:19:14.036Z,5
2018-11-05T02:20:04.432Z,4.9
2018-11-05T02:20:53.663Z,4.9
2018-11-05T02:21:43.718Z,4.8
2018-11-05T02:22:34.559Z,4.7
2018-11-05T02:23:24.032Z,4.7
2018-11-05T02:24:14.394Z,4.6
2018-11-05T02:25:04.168Z,4.6
2018-11-05T02:25:53.913Z,4.5
2018-11-05T02:26:44.851Z,4.5
2018-11-05T02:27:33.555Z,4.4
2018-11-05T02:28:24.188Z,4.6
2018-11-05T02:29:14.715Z,4.6
2018-11-05T02:30:04.785Z,4.4
2018-11-05T02:30:55.113Z,4.3
2018-11-05T02:31:45.224Z,4.3
2018-11-05T02:32:35.269Z,4.4
2018-11-05T02:33:24.483Z,4.3
2018-11-05T02:34:15.415Z,4.3
2018-11-05T02:35:05.466Z,4.3
2018-11-05T02:35:54.646Z,4.3
2018-11-05T02:36:45.306Z,4.3
2018-11-05T02:37:35.306Z,4.3
2018-11-05T02:38:24.838Z,4.2
2018-11-05T02:39:15.448Z,4.1
2018-11-05T02:40:05.830Z,4.1
2018-11-05T02:40:55.410Z,4.1
2018-11-05T02:41:45.750Z,4.1
2018-11-05T02:42:35.733Z,4
2018-11-05T02:43:26.322Z,3.9
2018-11-05T02:44:16.152Z,3.9
2018-11-05T02:45:05.883Z,3.9
2018-11-05T02:45:55.987Z,4
2018-11-05T02:46:45.722Z,3.9
2018-11-05T02:47:36.092Z,3.9
2018-11-05T02:48:25.914Z,3.8
2018-11-05T02:49:16.216Z,3.8
2018-11-05T02:50:06.070Z,3.7
2018-11-05T02:50:55.987Z,3.6
2018-11-05T02:51:46.204Z,3.6
2018-11-05T02:52:36.211Z,3.6
2018-11-05T02:53:26.781Z,3.5
2018-11-05T02:54:16.587Z,3.5
2018-11-05T02:55:06.657Z,3.5
2018-11-05T02:55:56.102Z,3.4
2018-11-05T02:56:47.021Z,3.4
2018-11-05T02:57:36.812Z,3.4
2018-11-05T02:58:27.162Z,3.3
2018-11-05T02:59:16.980Z,3.3
2018-11-05T03:00:06.424Z,3.2
2018-11-05T03:00:57.332Z,3.2
2018-11-05T03:01:46.456Z,3.1
2018-11-05T03:02:36.915Z,3.3
2018-11-05T03:03:28.060Z,3.1
2018-11-05T03:04:16.859Z,3.1
2018-11-05T03:05:07.387Z,3.1
2018-11-05T03:05:57.526Z,3
2018-11-05T03:06:47.506Z,3.1
2018-11-05T03:07:36.789Z,3
2018-11-05T03:08:27.309Z,3.1
2018-11-05T03:09:17.935Z,3
2018-11-05T03:10:07.256Z,3
2018-11-05T03:10:58.052Z,3.1
2018-11-05T03:11:47.444Z,3.1
2018-11-05T03:12:37.636Z,3.1
2018-11-05T03:13:27.967Z,3.1
2018-11-05T03:14:18.116Z,3
2018-11-05T03:15:08.134Z,2.9
2018-11-05T03:15:57.654Z,2.9
2018-11-05T03:16:48.218Z,2.9
2018-11-05T03:17:38.025Z,2.9
2018-11-05T03:18:28.363Z,2.9
2018-11-05T03:19:17.913Z,2.9
2018-11-05T03:20:08.158Z,2.9
2018-11-05T03:20:58.814Z,3
2018-11-05T03:21:48.867Z,2.9
2018-11-05T03:22:38.358Z,3
2018-11-05T03:23:29.235Z,2.9
2018-11-05T03:24:18.745Z,2.9
2018-11-05T03:25:08.538Z,2.9
2018-11-05T03:25:58.955Z,2.9
2018-11-05T03:26:48.722Z,2.9
2018-11-05T03:27:38.706Z,2.9
2018-11-05T03:28:29.360Z,2.9
2018-11-05T03:29:18.847Z,2.8
2018-11-05T03:30:09.616Z,2.8
2018-11-05T03:30:59.241Z,2.7
2018-11-05T03:31:48.966Z,2.8
2018-11-05T03:32:39.453Z,2.9
2018-11-05T03:33:29.142Z,2.9
2018-11-05T03:34:19.500Z,2.9
2018-11-05T03:35:09.279Z,2.9
2018-11-05T03:36:00.608Z,3.1
2018-11-05T03:36:50.233Z,3.1
2018-11-05T03:37:39.760Z,3.2
2018-11-05T03:38:29.797Z,3.1
2018-11-05T03:39:20.154Z,3.1
2018-11-05T03:40:09.632Z,3.1
2018-11-05T03:40:59.492Z,3.3
2018-11-05T03:41:49.754Z,3.4
2018-11-05T03:42:39.613Z,3.4
2018-11-05T03:43:30.169Z,3.3
2018-11-05T03:44:20.176Z,3.2
2018-11-05T03:45:10.276Z,3.2
2018-11-05T03:46:00.352Z,3.1
2018-11-05T03:46:50.660Z,3.1
2018-11-05T03:47:40.159Z,3.1
2018-11-05T03:48:30.242Z,3
2018-11-05T03:49:20.197Z,3.1
2018-11-05T03:50:10.350Z,3.1
2018-11-05T03:51:00.448Z,3.1
2018-11-05T03:51:50.477Z,3.1
2018-11-05T03:52:40.249Z,3.1
2018-11-05T03:53:30.351Z,3.2
2018-11-05T03:54:20.708Z,3.1
2018-11-05T03:55:10.749Z,3.2
2018-11-05T03:56:01.689Z,3.3
2018-11-05T03:56:51.206Z,3.3
2018-11-05T03:57:41.181Z,3.3
2018-11-05T03:58:30.947Z,3.4
2018-11-05T03:59:20.733Z,3.6
2018-11-05T04:00:11.899Z,3.6
2018-11-05T04:01:01.146Z,3.7
2018-11-05T04:01:51.541Z,3.7
2018-11-05T04:02:41.586Z,3.6
2018-11-05T04:03:31.541Z,3.7
2018-11-05T04:04:21.391Z,3.7
2018-11-05T04:05:11.994Z,3.6
2018-11-05T04:06:02.057Z,3.7
2018-11-05T04:06:52.151Z,3.7
2018-11-05T04:07:41.362Z,3.8
2018-11-05T04:08:31.967Z,3.6
2018-11-05T04:09:21.161Z,3.6
2018-11-05T04:10:11.569Z,3.6
2018-11-05T04:11:02.720Z,3.7
2018-11-05T04:11:51.651Z,3.8
2018-11-05T04:12:42.263Z,3.7
2018-11-05T04:13:32.048Z,3.6
2018-11-05T04:14:22.130Z,3.6
2018-11-05T04:15:13.208Z,3.5
2018-11-05T04:16:03.839Z,3.4
2018-11-05T04:16:52.596Z,3.5
2018-11-05T04:17:42.430Z,3.6
2018-11-05T04:18:32.562Z,3.6
2018-11-05T04:19:22.195Z,3.6
2018-11-05T04:20:13.116Z,3.6
2018-11-05T04:21:02.612Z,3.6
2018-11-05T04:21:52.187Z,3.6
2018-11-05T04:22:43.022Z,3.6
2018-11-05T04:23:33.352Z,3.4
2018-11-05T04:24:23.153Z,3.4
2018-11-05T04:25:12.388Z,3.3
2018-11-05T04:26:02.993Z,3.3
2018-11-05T04:26:53.344Z,3.3
2018-11-05T04:27:44.119Z,3.4
2018-11-05T04:28:33.443Z,3.4
2018-11-05T04:29:23.804Z,3.4
2018-11-05T04:30:13.819Z,3.3
2018-11-05T04:31:03.712Z,3.3
2018-11-05T04:31:53.185Z,3.3
2018-11-05T04:32:43.810Z,3.3
2018-11-05T04:33:33.816Z,3.4
2018-11-05T04:34:24.149Z,3.4
2018-11-05T04:35:13.949Z,3.4
2018-11-05T04:36:03.997Z,3.3
2018-11-05T04:54:07.466Z,2.9
2018-11-05T04:54:57.538Z,2.9
2018-11-05T04:55:47.898Z,2.9
2018-11-05T04:56:37.676Z,2.9
2018-11-05T04:57:27.435Z,2.9
2018-11-05T04:58:18.321Z,2.8
2018-11-05T04:59:07.861Z,2.8
2018-11-05T04:59:57.348Z,2.8
2018-11-05T05:00:48.208Z,2.9
2018-11-05T05:01:38.293Z,3
2018-11-05T05:02:27.782Z,3.1
2018-11-05T05:03:18.253Z,3
2018-11-05T05:04:07.923Z,3
2018-11-05T05:04:57.977Z,3.1
2018-11-05T05:05:48.348Z,3
2018-11-05T05:06:38.082Z,2.9
2018-11-05T05:07:28.158Z,2.9
2018-11-05T05:08:17.452Z,2.9
2018-11-05T05:09:08.607Z,2.9
2018-11-05T05:09:58.353Z,2.9
2018-11-05T05:10:48.144Z,2.9
2018-11-05T05:11:37.865Z,2.9
2018-11-05T05:12:28.609Z,2.9
2018-11-05T05:13:19.387Z,2.9
2018-11-05T05:14:09.154Z,2.9
2018-11-05T05:14:58.966Z,2.9
2018-11-05T05:15:48.777Z,2.9
2018-11-05T05:16:39.409Z,2.9
2018-11-05T05:17:29.169Z,3
2018-11-05T05:18:18.909Z,2.9
2018-11-05T05:19:09.568Z,2.9
2018-11-05T05:19:59.594Z,2.9
2018-11-05T05:20:49.373Z,2.9
2018-11-05T05:21:39.547Z,2.9
2018-11-05T05:22:29.454Z,2.9
2018-11-05T05:23:19.104Z,2.9
2018-11-05T05:24:09.361Z,3
2018-11-05T05:25:00.229Z,3
2018-11-05T05:25:50.049Z,2.9
2018-11-05T05:26:40.089Z,3
2018-11-05T05:27:29.689Z,2.9
2018-11-05T05:28:19.931Z,3
2018-11-05T05:29:09.996Z,3
2018-11-05T05:29:59.768Z,3
2018-11-05T05:30:50.402Z,3
2018-11-05T05:31:39.906Z,3.1
2018-11-05T05:32:30.269Z,3.1
2018-11-05T05:33:20.155Z,3.1
2018-11-05T05:34:10.408Z,3.2
2018-11-05T05:35:00.459Z,3.3
2018-11-05T05:35:50.209Z,3.3
2018-11-05T05:36:40.280Z,3.3
2018-11-05T05:37:30.038Z,3.4
2018-11-05T05:38:20.683Z,3.6
2018-11-05T05:39:10.736Z,3.6
2018-11-05T05:40:00.861Z,3.6
2018-11-05T05:40:51.708Z,3.6
2018-11-05T05:41:40.355Z,3.6
2018-11-05T05:42:30.695Z,3.7
2018-11-05T05:43:20.783Z,3.8
2018-11-05T05:44:11.098Z,3.8
2018-11-05T05:45:01.420Z,3.8
2018-11-05T05:45:50.920Z,3.9
2018-11-05T05:46:40.702Z,3.9
2018-11-05T05:47:31.042Z,4
2018-11-05T05:48:21.398Z,4
2018-11-05T05:49:11.329Z,4
2018-11-05T05:50:02.219Z,4.1
2018-11-05T05:50:51.553Z,4.2
2018-11-05T05:51:41.349Z,4.3
2018-11-05T05:52:31.957Z,4.3
2018-11-05T05:53:21.489Z,4.3
2018-11-05T05:54:11.629Z,4.4
2018-11-05T05:55:01.880Z,4.4
2018-11-05T05:55:51.950Z,4.5
2018-11-05T05:56:41.592Z,4.6
2018-11-05T05:57:31.764Z,4.7
2018-11-05T05:58:22.175Z,4.8
2018-11-05T05:59:11.964Z,4.7
2018-11-05T06:00:03.273Z,4.8
2018-11-05T06:00:51.638Z,4.9
2018-11-05T06:01:41.789Z,5
2018-11-05T06:02:31.947Z,5.1
2018-11-05T06:03:22.476Z,5.2
2018-11-05T06:04:12.842Z,5.2
2018-11-05T06:05:02.419Z,5.2
2018-11-05T06:05:52.120Z,5.3
2018-11-05T06:06:43.026Z,5.3
2018-11-05T06:07:32.486Z,5.4
2018-11-05T06:08:22.077Z,5.4
2018-11-05T06:09:12.684Z,5.6
2018-11-05T06:10:02.476Z,5.6
2018-11-05T06:10:53.298Z,5.7
2018-11-05T06:11:42.300Z,5.8
2018-11-05T06:12:33.138Z,5.8
2018-11-05T06:13:22.651Z,5.8
2018-11-05T06:14:12.977Z,5.8
2018-11-05T06:15:03.040Z,5.9
2018-11-05T06:15:54.160Z,5.9
2018-11-05T06:16:42.888Z,6
2018-11-05T06:17:33.211Z,6.1
2018-11-05T06:18:23.377Z,6.2
2018-11-05T06:19:13.239Z,6.3
2018-11-05T06:20:03.510Z,6.3
2018-11-05T06:20:53.328Z,6.3
2018-11-05T06:21:44.511Z,6.4
2018-11-05T06:22:33.565Z,6.5
2018-11-05T06:23:23.450Z,6.6
2018-11-05T06:24:13.428Z,6.7
2018-11-05T06:25:03.760Z,6.7
2018-11-05T06:25:54.083Z,6.8
2018-11-05T06:26:43.411Z,6.8
2018-11-05T06:27:33.752Z,6.8
2018-11-05T06:28:24.361Z,6.9
2018-11-05T06:29:14.323Z,6.9
2018-11-05T06:30:04.695Z,7
2018-11-05T06:30:54.290Z,7
2018-11-05T06:31:44.858Z,7.1
2018-11-05T06:32:34.584Z,7.1
2018-11-05T06:33:24.660Z,7.2
2018-11-05T06:34:14.150Z,7.3
2018-11-05T06:35:04.559Z,7.3
2018-11-05T06:35:54.825Z,7.4
2018-11-05T06:36:45.149Z,7.4
2018-11-05T06:37:34.455Z,7.4
2018-11-05T06:38:24.716Z,7.5
2018-11-05T06:39:14.798Z,7.5
2018-11-05T06:40:04.552Z,7.4
2018-11-05T06:40:55.459Z,7.4
2018-11-05T06:41:45.848Z,7.4
2018-11-05T06:42:34.745Z,7.6
2018-11-05T06:43:25.092Z,7.6
2018-11-05T06:44:16.295Z,7.6
2018-11-05T06:45:05.253Z,7.7
2018-11-05T06:45:55.095Z,7.8
2018-11-05T06:46:45.328Z,7.8
2018-11-05T06:47:35.670Z,7.8
2018-11-05T06:48:25.451Z,7.9
2018-11-05T06:49:15.821Z,7.9
2018-11-05T06:50:05.564Z,7.8
2018-11-05T06:50:55.891Z,7.9
2018-11-05T06:51:45.706Z,7.9
2018-11-05T06:52:35.936Z,8
2018-11-05T06:53:25.846Z,8.1
2018-11-05T06:54:16.144Z,8.1
2018-11-05T06:55:06.236Z,8.2
2018-11-05T06:55:56.313Z,8.4
2018-11-05T06:56:46.153Z,8.6
2018-11-05T06:57:36.382Z,8.6
2018-11-05T06:58:26.823Z,8.6
2018-11-05T06:59:15.926Z,8.8
2018-11-05T07:00:06.286Z,8.8
2018-11-05T07:00:56.371Z,8.9
2018-11-05T07:01:46.723Z,8.9
2018-11-05T07:02:36.292Z,8.9
2018-11-05T07:03:26.549Z,8.9
2018-11-05T07:04:16.580Z,9.3
2018-11-05T07:05:06.456Z,9.3
2018-11-05T07:05:58.267Z,9.2
2018-11-05T07:06:46.514Z,9.3
2018-11-05T07:07:36.729Z,9.2
2018-11-05T07:08:26.717Z,9.3
2018-11-05T07:09:16.683Z,9.3
2018-11-05T07:10:07.015Z,9.3
2018-11-05T07:10:56.794Z,9.4
2018-11-05T07:11:46.866Z,9.4
2018-11-05T07:12:37.495Z,9.6
2018-11-05T07:13:27.823Z,9.6
2018-11-05T07:14:17.336Z,9.4
2018-11-05T07:15:07.658Z,9.8
2018-11-05T07:15:57.145Z,9.9
2018-11-05T07:16:47.508Z,9.9
2018-11-05T07:17:37.813Z,9.8
2018-11-05T07:18:28.960Z,9.9
2018-11-05T07:19:18.291Z,10.1
2018-11-05T07:20:08.263Z,9.9
2018-11-05T07:20:57.525Z,9.9
2018-11-05T07:21:47.275Z,10.1
2018-11-05T07:22:38.230Z,10.4
2018-11-05T07:23:28.249Z,10.7
2018-11-05T07:24:18.369Z,10.6
2018-11-05T07:25:08.098Z,10.8
2018-11-05T07:25:57.575Z,10.8
2018-11-05T07:26:48.243Z,10.9
2018-11-05T07:27:38.595Z,10.9
2018-11-05T07:28:28.333Z,10.9
2018-11-05T07:29:18.688Z,10.9
2018-11-05T07:30:08.451Z,11.1
2018-11-05T07:30:58.505Z,11
2018-11-05T07:31:48.192Z,10.9
2018-11-05T07:32:38.068Z,10.9
2018-11-05T07:33:29.648Z,11.2
2018-11-05T07:34:19.918Z,11.3
2018-11-05T07:35:08.350Z,11.1
2018-11-05T07:35:58.613Z,11.2
2018-11-05T07:36:48.956Z,11.3
2018-11-05T07:37:39.140Z,11.4
2018-11-05T07:38:28.862Z,11.8
2018-11-05T07:39:19.411Z,11.8
2018-11-05T07:40:09.188Z,12.1
2018-11-05T07:40:58.960Z,12.1
2018-11-05T07:41:49.045Z,12
2018-11-05T07:42:39.364Z,12.2
2018-11-05T07:43:30.302Z,12.3
2018-11-05T07:44:19.513Z,12.3
2018-11-05T07:45:09.545Z,12.3
2018-11-05T07:46:00.169Z,12.5
2018-11-05T07:46:49.092Z,12.6
2018-11-05T07:47:39.530Z,12.6
2018-11-05T07:48:29.782Z,12.5
2018-11-05T07:49:19.819Z,12.4
2018-11-05T07:50:10.808Z,12.3
2018-11-05T07:50:59.971Z,12.3
2018-11-05T07:51:50.040Z,12.1
2018-11-05T07:52:40.363Z,12.1
2018-11-05T07:53:30.000Z,12.2
2018-11-05T07:54:20.216Z,12.1
2018-11-05T07:55:10.000Z,12.3
2018-11-05T07:56:00.224Z,12.2
2018-11-05T07:56:51.759Z,12.3
2018-11-05T07:57:40.434Z,12.4
2018-11-05T07:58:30.787Z,12.6
2018-11-05T07:59:20.074Z,12.4
2018-11-05T08:00:10.645Z,12.6
2018-11-05T08:01:00.489Z,12.6
2018-11-05T08:01:50.961Z,12.4
2018-11-05T08:02:40.944Z,12.4
2018-11-05T08:03:30.886Z,12.4
2018-11-05T08:04:21.477Z,12.6
2018-11-05T08:05:11.246Z,12.6
2018-11-05T08:06:00.486Z,12.4
2018-11-05T08:06:51.466Z,12.7
2018-11-05T08:07:41.488Z,12.4
2018-11-05T08:08:33.001Z,12.4
2018-11-05T08:09:21.868Z,12.6
2018-11-05T08:10:11.655Z,12.9
2018-11-05T08:11:01.516Z,12.9
2018-11-05T08:11:51.589Z,12.9
2018-11-05T08:12:41.283Z,13.2
2018-11-05T08:13:31.495Z,13.2
2018-11-05T08:14:23.049Z,13.4
2018-11-05T08:15:11.512Z,13.6
2018-11-05T08:16:01.490Z,13.5
2018-11-05T08:16:51.953Z,13.7
2018-11-05T08:17:42.178Z,13.5
2018-11-05T08:18:31.939Z,13.6
2018-11-05T08:19:22.316Z,13.6
2018-11-05T08:20:12.415Z,13.6
2018-11-05T08:21:02.430Z,13.9
2018-11-05T08:21:51.919Z,13.9
2018-11-05T08:22:41.979Z,13.9
2018-11-05T08:23:32.654Z,13.9
2018-11-05T08:24:21.987Z,13.9
2018-11-05T08:25:12.460Z,13.9
2018-11-05T08:26:03.065Z,13.8
2018-11-05T08:26:52.839Z,13.7
2018-11-05T08:27:42.902Z,13.9
2018-11-05T08:28:32.689Z,13.8
2018-11-05T08:29:22.561Z,13.6
2018-11-05T08:30:12.417Z,13.8
2018-11-05T08:31:02.753Z,14
2018-11-05T08:31:53.176Z,13.9
2018-11-05T08:32:43.260Z,13.9
2018-11-05T08:33:32.934Z,14.3
2018-11-05T08:34:22.651Z,14.2
2018-11-05T08:35:12.951Z,13.6
2018-11-05T08:36:03.512Z,13.4
2018-11-05T08:36:53.281Z,13.6
2018-11-05T08:37:43.398Z,14.1
2018-11-05T08:38:33.428Z,14.4
2018-11-05T08:39:23.749Z,14.5
2018-11-05T08:40:14.554Z,14.8
2018-11-05T08:41:03.889Z,14.9
2018-11-05T08:41:53.668Z,14.7
2018-11-05T08:42:43.434Z,14.2
2018-11-05T08:43:33.888Z,14.5
2018-11-05T08:44:23.445Z,14.9
2018-11-05T08:45:14.154Z,14.9
2018-11-05T08:46:03.951Z,14.8
2018-11-05T08:46:54.660Z,14.4
2018-11-05T08:47:43.886Z,14.2
2018-11-05T08:48:34.138Z,14.1
2018-11-05T08:49:23.993Z,14
2018-11-05T08:50:15.008Z,14.2
2018-11-05T08:51:07.571Z,13.9
2018-11-05T08:51:54.824Z,14.3
2018-11-05T09:08:37.433Z,14.5
2018-11-05T09:09:28.091Z,14.3
2018-11-05T09:10:19.841Z,14.2
2018-11-05T09:11:09.646Z,14.5
2018-11-05T09:11:58.271Z,14.9
2018-11-05T09:12:48.549Z,14.8
2018-11-05T09:13:38.472Z,14.6
2018-11-05T09:14:28.041Z,14.6
2018-11-05T09:15:18.377Z,14.3
2018-11-05T09:16:08.864Z,14.5
2018-11-05T09:16:58.514Z,14.4
2018-11-05T09:17:48.080Z,14.7
2018-11-05T09:18:37.866Z,14.9
2018-11-05T09:19:28.499Z,14.8
2018-11-05T09:20:18.781Z,15.3
2018-11-05T09:21:08.122Z,14.9
2018-11-05T09:21:57.904Z,14.5
2018-11-05T09:22:49.212Z,14.4
2018-11-05T09:23:38.502Z,14.5
2018-11-05T09:24:29.054Z,14.7
2018-11-05T09:25:18.841Z,15.1
2018-11-05T09:26:08.714Z,15.4
2018-11-05T09:26:58.656Z,15
2018-11-05T09:27:49.646Z,14.9
2018-11-05T09:28:39.644Z,15.1
2018-11-05T09:29:29.224Z,15.4
2018-11-05T09:30:18.999Z,15.7
2018-11-05T09:31:09.537Z,15.7
2018-11-05T09:31:59.329Z,15.4
2018-11-05T09:32:49.367Z,15.1
2018-11-05T09:33:38.946Z,15.8
2018-11-05T09:34:29.540Z,15.8
2018-11-05T09:35:19.649Z,15.8
2018-11-05T09:36:10.009Z,15.3
2018-11-05T09:36:59.675Z,15.5
2018-11-05T09:37:49.761Z,15.6
2018-11-05T09:38:39.893Z,15.3
2018-11-05T09:39:29.886Z,15.1
2018-11-05T09:40:19.422Z,15.1
2018-11-05T09:41:10.079Z,15.1
2018-11-05T09:42:00.308Z,15.3
2018-11-05T09:42:50.887Z,15.8
2018-11-05T09:43:39.890Z,15.4
2018-11-05T09:44:30.222Z,15
2018-11-05T09:45:20.283Z,14.9
2018-11-05T09:46:10.142Z,14.7
2018-11-05T09:46:59.822Z,14.7
2018-11-05T09:47:51.032Z,14.7
2018-11-05T09:48:40.531Z,14.9
2018-11-05T09:49:30.681Z,15.1
2018-11-05T09:50:21.022Z,15.3
2018-11-05T09:51:10.718Z,15.1
2018-11-05T09:52:00.002Z,15.5
2018-11-05T09:52:51.124Z,15.6
2018-11-05T09:53:40.892Z,16.5
2018-11-05T09:54:31.552Z,16.8
2018-11-05T09:55:21.588Z,15.9
2018-11-05T09:56:11.628Z,15.4
2018-11-05T09:57:01.698Z,15.3
2018-11-05T09:57:50.910Z,15.7
2018-11-05T09:58:41.558Z,16
2018-11-05T09:59:31.904Z,15.7
2018-11-05T10:00:21.674Z,15.6
2018-11-05T10:01:11.442Z,15.7
2018-11-05T10:02:01.212Z,15.4
2018-11-05T10:02:52.763Z,15.6
2018-11-05T10:03:43.265Z,15.4
2018-11-05T10:04:34.513Z,15.8
2018-11-05T10:05:22.321Z,15.8
2018-11-05T10:06:11.531Z,16.2
2018-11-05T10:07:02.469Z,16.4
2018-11-05T10:07:52.506Z,16.8
2018-11-05T10:08:42.289Z,16.9
2018-11-05T10:09:32.623Z,16.8
2018-11-05T10:10:23.739Z,16.7
2018-11-05T10:11:12.184Z,16.4
2018-11-05T10:12:02.799Z,16
2018-11-05T10:12:52.289Z,15.7
2018-11-05T10:13:42.605Z,15.7
2018-11-05T10:14:32.197Z,15.9
2018-11-05T10:15:23.324Z,16.3
2018-11-05T10:16:12.532Z,16.8
2018-11-05T10:17:53.073Z,16.6
2018-11-05T10:19:32.487Z,17.1
2018-11-05T10:20:22.533Z,17.1
2018-11-05T10:21:12.997Z,17.6
2018-11-05T10:22:02.681Z,18.2
2018-11-05T10:22:53.108Z,18.1
2018-11-05T10:23:43.161Z,18.3
2018-11-05T10:24:34.139Z,18.1
2018-11-05T10:25:22.625Z,17.9
2018-11-05T10:26:13.552Z,17.7
2018-11-05T10:27:03.591Z,16.9
2018-11-05T10:27:53.385Z,16.4
2018-11-05T10:28:42.936Z,16.4
2018-11-05T10:29:33.512Z,16.4
2018-11-05T10:30:23.833Z,16.3
2018-11-05T10:31:13.623Z,16.6
2018-11-05T10:32:03.699Z,16.3
2018-11-05T10:32:53.862Z,16.3
2018-11-05T10:33:44.460Z,16.5
2018-11-05T10:34:34.157Z,16.6
2018-11-05T10:36:13.802Z,17.4
2018-11-05T10:37:03.889Z,17.4
2018-11-05T10:37:53.934Z,17.9
2018-11-05T10:38:43.990Z,17.7
2018-11-05T10:39:34.224Z,17.2
2018-11-05T10:40:24.059Z,17.2
2018-11-05T10:42:04.520Z,16.7
2018-11-05T10:42:53.679Z,16.6
2018-11-05T10:43:44.804Z,16.8
2018-11-05T10:44:34.598Z,17.5
2018-11-05T10:45:24.467Z,17.8
2018-11-05T10:46:16.128Z,18.2
2018-11-05T10:47:04.445Z,18
2018-11-05T10:47:55.412Z,18.4
2018-11-05T10:48:44.603Z,18.4
2018-11-05T10:49:34.966Z,18.8
2018-11-05T10:50:26.060Z,18.3
2018-11-05T10:51:15.951Z,18.1
2018-11-05T10:52:08.078Z,18.5
2018-11-05T10:52:55.467Z,18.4
2018-11-05T10:53:45.883Z,17.8
2018-11-05T10:54:35.947Z,16.9
2018-11-05T10:55:25.461Z,16.9
2018-11-05T10:56:15.536Z,17.3
2018-11-05T10:57:06.362Z,17.7
2018-11-05T10:57:56.353Z,18
2018-11-05T10:58:45.711Z,17.9
2018-11-05T10:59:35.989Z,17.8
2018-11-05T11:00:25.478Z,17.6
2018-11-05T11:01:16.046Z,17.8
2018-11-05T11:02:06.124Z,17.6
2018-11-05T11:02:56.232Z,17.8
2018-11-05T11:03:46.799Z,18.6
2018-11-05T11:04:36.531Z,18.1
2018-11-05T11:05:26.401Z,17.6
2018-11-05T11:06:16.466Z,18
2018-11-05T11:07:06.508Z,18.3
2018-11-05T11:07:56.020Z,18.2
2018-11-05T11:08:46.972Z,18
2018-11-05T11:09:37.287Z,17.9
2018-11-05T11:10:26.815Z,17.9
2018-11-05T11:11:16.543Z,18.3
2018-11-05T11:12:06.625Z,18.2
2018-11-05T11:12:57.205Z,18.4
2018-11-05T11:13:46.991Z,18.6
2018-11-05T11:14:37.388Z,17.9
2018-11-05T11:15:27.275Z,18.4
2018-11-05T11:16:16.942Z,18.4
2018-11-05T11:17:07.265Z,18.8
2018-11-05T11:17:57.030Z,19.1
2018-11-05T11:18:47.391Z,19.1
2018-11-05T11:19:36.872Z,18.8
2018-11-05T11:20:27.535Z,18.6
2018-11-05T11:21:17.259Z,18.8
2018-11-05T11:22:07.951Z,18.8
2018-11-05T11:22:56.910Z,18.9
2018-11-05T11:23:47.881Z,19.1
2018-11-05T11:24:37.792Z,18.6
2018-11-05T11:25:27.832Z,18.1
2018-11-05T11:26:17.246Z,18.1
2018-11-05T11:27:07.295Z,18.3
2018-11-05T11:27:59.952Z,18.8
2018-11-05T11:28:48.495Z,18.8
2018-11-05T11:29:37.687Z,18.2
2018-11-05T11:30:27.949Z,18.4
2018-11-05T11:31:18.007Z,18.3
2018-11-05T11:32:08.062Z,18.6
2018-11-05T11:32:57.944Z,18.9
2018-11-05T11:33:48.194Z,18.9
2018-11-05T11:34:38.257Z,19.2
2018-11-05T11:35:28.334Z,19.4
2018-11-05T11:36:19.081Z,19.2
2018-11-05T11:37:09.222Z,19
2018-11-05T11:37:58.583Z,18.9
2018-11-05T11:38:48.846Z,18.3
2018-11-05T11:39:38.931Z,18
2018-11-05T11:40:28.953Z,18.2
2018-11-05T11:41:19.291Z,18.2
2018-11-05T11:42:08.601Z,18.2
2018-11-05T11:42:58.656Z,18.6
2018-11-05T11:43:49.200Z,18.6
2018-11-05T11:44:39.528Z,18.6
2018-11-05T11:45:29.054Z,18.6
2018-11-05T11:46:18.593Z,19.2
2018-11-05T11:47:09.163Z,19.5
2018-11-05T11:47:59.598Z,19.7
2018-11-05T11:48:49.875Z,19.7
2018-11-05T11:50:30.015Z,18.4
2018-11-05T11:51:19.740Z,18.6
2018-11-05T11:52:10.350Z,18.8
2018-11-05T11:52:59.489Z,18.8
2018-11-05T11:53:49.896Z,18.3
2018-11-05T11:54:40.040Z,18.5
2018-11-05T11:55:29.790Z,18.6
2018-11-05T11:56:19.884Z,18.9
2018-11-05T11:57:10.191Z,18.8
2018-11-05T11:57:59.968Z,19.1
2018-11-05T11:58:50.343Z,19
2018-11-05T11:59:40.555Z,19.7
2018-11-05T12:00:30.505Z,20.1
2018-11-05T12:01:20.497Z,20.3
2018-11-05T12:02:11.217Z,20.8
2018-11-05T12:03:00.612Z,19.9
2018-11-05T12:03:50.710Z,19.6
2018-11-05T12:04:40.704Z,18.9
2018-11-05T12:05:31.170Z,18.8
2018-11-05T12:06:20.854Z,19.1
2018-11-05T12:07:10.458Z,19.3
2018-11-05T12:08:00.895Z,19.6
2018-11-05T12:08:50.730Z,19.3
2018-11-05T12:09:41.061Z,19.3
2018-11-05T12:10:30.564Z,19.7
2018-11-05T12:11:21.446Z,19.9
2018-11-05T12:12:10.726Z,19.8
2018-11-05T12:13:01.336Z,19.8
2018-11-05T12:13:51.481Z,19.8
2018-11-05T12:14:42.099Z,19.3
2018-11-05T12:15:30.384Z,19.5
2018-11-05T12:16:21.556Z,20
2018-11-05T12:17:11.087Z,20.1
2018-11-05T12:18:01.694Z,19.3